createdAt,value
2018-08-22T00:13:58.257Z,20.67
2018-08-22T00:16:26.368Z,20.70
2018-08-22T00:18:54.515Z,20.71
2018-08-22T00:21:22.713Z,20.63
2018-08-22T00:23:50.834Z,20.59
2018-08-22T00:26:19.842Z,20.62
2018-08-22T00:28:47.971Z,20.69
2018-08-22T00:31:16.079Z,20.70
2018-08-22T00:33:44.183Z,20.79
2018-08-22T00:36:12.296Z,20.65
2018-08-22T00:38:40.466Z,20.50
2018-08-22T00:41:08.555Z,20.38
2018-08-22T00:43:37.043Z,20.24
2018-08-22T00:46:05.149Z,20.21
2018-08-22T00:48:33.827Z,20.24
2018-08-22T00:51:01.996Z,20.25
2018-08-22T00:53:30.106Z,20.16
2018-08-22T00:55:58.215Z,19.97
2018-08-22T00:58:26.322Z,19.91
2018-08-22T01:00:54.849Z,19.91
2018-08-22T01:03:23.267Z,19.78
2018-08-22T01:05:52.023Z,19.79
2018-08-22T01:08:20.156Z,19.75
2018-08-22T01:10:48.258Z,19.87
2018-08-22T01:13:16.387Z,20.12
2018-08-22T01:15:44.510Z,19.86
2018-08-22T01:18:12.614Z,19.67
2018-08-22T01:20:41.248Z,19.72
2018-08-22T01:23:09.402Z,19.76
2018-08-22T01:25:37.534Z,19.62
2018-08-22T01:28:05.754Z,19.50
2018-08-22T01:30:33.892Z,19.26
2018-08-22T01:33:02.032Z,19.22
2018-08-22T01:35:30.148Z,19.21
2018-08-22T01:37:58.338Z,19.27
2018-08-22T01:40:27.611Z,19.19
2018-08-22T01:42:55.771Z,19.14
2018-08-22T01:45:23.884Z,19.03
2018-08-22T01:47:52.105Z,19.08
2018-08-22T01:50:20.235Z,19.12
2018-08-22T01:52:48.424Z,19.04
2018-08-22T01:55:17.084Z,19.00
2018-08-22T01:57:45.291Z,19.03
2018-08-22T02:00:13.424Z,18.86
2018-08-22T02:02:41.996Z,18.90
2018-08-22T02:05:10.176Z,18.90
2018-08-22T02:07:38.295Z,18.93
2018-08-22T02:10:06.468Z,18.87
2018-08-22T02:12:35.547Z,18.79
2018-08-22T02:15:03.805Z,18.86
2018-08-22T02:17:31.960Z,18.89
2018-08-22T02:20:00.771Z,18.91
2018-08-22T02:22:29.098Z,18.73
2018-08-22T02:24:57.250Z,18.62
2018-08-22T02:27:25.395Z,18.62
2018-08-22T02:29:53.536Z,18.57
2018-08-22T02:32:21.660Z,18.61
2018-08-22T02:34:49.817Z,18.57
2018-08-22T02:37:19.181Z,18.63
2018-08-22T02:39:47.313Z,18.50
2018-08-22T02:42:15.999Z,18.35
2018-08-22T02:44:44.155Z,18.45
2018-08-22T02:47:12.284Z,18.48
2018-08-22T02:49:40.716Z,18.46
2018-08-22T02:52:08.864Z,18.46
2018-08-22T02:54:37.227Z,18.54
2018-08-22T02:57:05.687Z,18.47
2018-08-22T02:59:34.491Z,18.50
2018-08-22T03:02:03.729Z,18.42
2018-08-22T03:04:32.595Z,18.40
2018-08-22T03:07:00.989Z,18.43
2018-08-22T03:09:29.167Z,18.51
2018-08-22T03:11:58.181Z,18.53
2018-08-22T03:14:27.070Z,18.32
2018-08-22T03:16:55.208Z,18.20
2018-08-22T03:19:23.496Z,18.20
2018-08-22T03:21:52.580Z,18.21
2018-08-22T03:24:20.715Z,18.19
2018-08-22T03:32:36.400Z,18.04
2018-08-22T03:35:05.989Z,18.10
2018-08-22T03:37:36.056Z,18.07
2018-08-22T03:40:04.400Z,18.11
2018-08-22T03:42:37.239Z,18.10
2018-08-22T03:45:05.392Z,18.08
2018-08-22T03:47:33.832Z,18.06
2018-08-22T03:52:54.860Z,17.96
2018-08-22T03:55:23.011Z,17.98
2018-08-22T04:03:35.801Z,17.81
2018-08-22T04:06:04.076Z,17.80
2018-08-22T04:08:33.089Z,17.81
2018-08-22T04:11:01.242Z,17.78
2018-08-22T04:13:29.537Z,17.72
2018-08-22T04:15:58.027Z,17.74
2018-08-22T04:18:26.302Z,17.73
2018-08-22T04:20:54.769Z,17.56
2018-08-22T04:23:23.004Z,17.59
2018-08-22T04:25:51.971Z,17.53
2018-08-22T04:28:20.105Z,17.47
2018-08-22T04:30:48.469Z,17.73
2018-08-22T04:33:16.891Z,17.73
2018-08-22T04:35:45.812Z,17.79
2018-08-22T04:38:13.932Z,17.71
2018-08-22T04:43:44.795Z,17.66
2018-08-22T04:46:13.220Z,17.74
2018-08-22T04:48:41.657Z,17.65
2018-08-22T04:51:09.912Z,17.62
2018-08-22T04:53:38.369Z,17.60
2018-08-22T04:56:07.311Z,17.77
2018-08-22T05:04:41.247Z,17.71
2018-08-22T05:28:28.833Z,18.01
2018-08-22T05:30:57.033Z,18.04
2018-08-22T05:33:25.272Z,17.97
2018-08-22T05:35:53.464Z,17.94
2018-08-22T05:38:21.799Z,18.05
2018-08-22T05:40:50.901Z,18.17
2018-08-22T05:43:19.378Z,18.18
2018-08-22T05:45:47.692Z,18.31
2018-08-22T05:48:16.699Z,18.43
2018-08-22T05:50:44.945Z,18.65
2018-08-22T05:53:13.098Z,18.87
2018-08-22T05:55:41.375Z,18.97
2018-08-22T05:58:09.556Z,19.18
2018-08-22T06:00:37.880Z,19.38
2018-08-22T06:03:07.059Z,19.62
2018-08-22T06:05:35.522Z,19.74
2018-08-22T06:08:03.648Z,20.35
2018-08-22T06:10:32.028Z,21.12
2018-08-22T06:13:00.578Z,21.55
2018-08-22T06:15:28.925Z,21.78
2018-08-22T06:17:57.433Z,22.01
2018-08-22T06:20:25.867Z,22.28
2018-08-22T06:22:54.126Z,22.28
2018-08-22T06:25:22.284Z,22.27
2018-08-22T06:27:50.701Z,22.04
2018-08-22T06:30:18.805Z,22.06
2018-08-22T06:32:46.972Z,21.71
2018-08-22T06:35:15.473Z,21.37
2018-08-22T06:37:43.859Z,21.32
2018-08-22T06:40:12.465Z,21.23
2018-08-22T06:42:41.509Z,21.34
2018-08-22T06:45:10.604Z,21.31
2018-08-22T06:47:38.791Z,21.29
2018-08-22T06:50:07.002Z,21.36
2018-08-22T06:52:35.513Z,21.40
2018-08-22T06:55:04.049Z,21.51
2018-08-22T06:57:32.734Z,21.65
2018-08-22T07:00:01.386Z,21.89
2018-08-22T07:02:29.596Z,22.11
2018-08-22T07:04:57.834Z,22.41
2018-08-22T07:07:25.963Z,22.66
2018-08-22T07:09:54.126Z,22.90
2018-08-22T07:12:22.308Z,22.95
2018-08-22T07:14:50.928Z,22.88
2018-08-22T07:17:19.075Z,22.94
2018-08-22T07:19:47.240Z,23.02
2018-08-22T07:22:15.881Z,23.21
2018-08-22T07:24:44.001Z,23.10
2018-08-22T07:27:12.791Z,23.20
2018-08-22T07:29:41.814Z,23.45
2018-08-22T07:32:10.031Z,23.71
2018-08-22T07:34:38.416Z,23.78
2018-08-22T07:37:06.693Z,24.01
2018-08-22T07:39:35.513Z,23.88
2018-08-22T07:42:03.657Z,24.01
2018-08-22T07:44:31.781Z,24.00
2018-08-22T07:46:59.955Z,24.08
2018-08-22T07:49:28.067Z,23.70
2018-08-22T07:51:56.256Z,23.83
2018-08-22T07:54:29.063Z,23.99
2018-08-22T07:56:57.297Z,24.06
2018-08-22T07:59:25.439Z,24.27
2018-08-22T08:01:54.515Z,24.47
2018-08-22T08:04:23.107Z,24.54
2018-08-22T08:06:51.364Z,24.67
2018-08-22T08:09:19.493Z,24.59
2018-08-22T08:11:47.695Z,24.54
2018-08-22T08:14:15.857Z,24.76
2018-08-22T08:16:44.550Z,25.01
2018-08-22T08:19:12.990Z,25.25
2018-08-22T08:21:41.226Z,24.96
2018-08-22T08:24:09.423Z,25.17
2018-08-22T08:26:37.601Z,25.15
2018-08-22T08:29:05.909Z,25.40
2018-08-22T08:31:34.160Z,25.43
2018-08-22T08:34:02.320Z,25.59
2018-08-22T08:36:30.764Z,25.57
2018-08-22T08:38:59.152Z,25.81
2018-08-22T08:41:27.640Z,25.99
2018-08-22T08:43:55.718Z,26.24
2018-08-22T08:46:24.775Z,26.27
2018-08-22T08:48:52.909Z,26.35
2018-08-22T08:51:21.596Z,26.80
2018-08-22T08:53:49.761Z,27.03
2018-08-22T08:56:17.946Z,27.19
2018-08-22T08:58:46.399Z,27.16
2018-08-22T09:01:14.852Z,27.32
2018-08-22T09:03:43.125Z,27.36
2018-08-22T09:06:11.717Z,27.43
2018-08-22T09:08:39.831Z,27.38
2018-08-22T09:11:08.645Z,27.46
2018-08-22T09:13:40.495Z,27.29
2018-08-22T09:16:08.799Z,27.41
2018-08-22T09:18:36.930Z,27.63
2018-08-22T09:21:05.481Z,27.85
2018-08-22T09:23:33.843Z,28.04
2018-08-22T09:26:02.053Z,27.97
2018-08-22T09:28:30.248Z,28.19
2018-08-22T09:30:58.405Z,28.34
2018-08-22T09:33:27.641Z,28.48
2018-08-22T09:35:56.832Z,28.40
2018-08-22T09:38:24.973Z,28.55
2018-08-22T09:40:53.072Z,28.33
2018-08-22T09:43:21.266Z,28.38
2018-08-22T09:45:49.328Z,28.38
2018-08-22T09:48:17.494Z,28.35
2018-08-22T09:50:46.621Z,28.54
2018-08-22T09:53:15.187Z,28.66
2018-08-22T09:55:43.427Z,28.65
2018-08-22T09:58:11.679Z,28.96
2018-08-22T10:00:45.869Z,29.13
2018-08-22T10:03:14.005Z,29.17
2018-08-22T10:05:42.901Z,29.20
2018-08-22T10:08:11.145Z,28.98
2018-08-22T10:10:39.516Z,29.27
2018-08-22T10:13:07.658Z,29.70
2018-08-22T10:15:35.783Z,29.63
2018-08-22T10:18:04.132Z,29.70
2018-08-22T10:20:32.225Z,29.77
2018-08-22T10:23:00.576Z,29.97
2018-08-22T10:25:28.704Z,29.89
2018-08-22T10:27:56.854Z,29.76
2018-08-22T10:30:25.165Z,29.95
2018-08-22T10:32:53.368Z,30.12
2018-08-22T10:35:21.550Z,29.97
2018-08-22T10:37:49.739Z,30.08
2018-08-22T10:40:17.875Z,30.32
2018-08-22T10:42:46.005Z,30.60
2018-08-22T10:45:14.132Z,30.27
2018-08-22T10:47:42.397Z,30.30
2018-08-22T10:50:10.777Z,30.27
2018-08-22T10:52:38.915Z,30.39
2018-08-22T10:55:07.095Z,30.48
2018-08-22T10:57:35.198Z,30.36
2018-08-22T11:00:03.349Z,30.45
2018-08-22T11:02:31.442Z,30.37
2018-08-22T11:04:59.574Z,30.54
2018-08-22T11:07:27.949Z,30.71
2018-08-22T11:09:56.184Z,30.92
2018-08-22T11:12:24.267Z,31.04
2018-08-22T11:14:52.379Z,31.30
2018-08-22T11:17:20.492Z,31.28
2018-08-22T11:19:48.585Z,31.30
2018-08-22T11:22:28.504Z,31.40
2018-08-22T11:25:07.944Z,31.27
2018-08-22T11:27:47.486Z,31.41
2018-08-22T11:30:27.070Z,31.20
2018-08-22T11:33:06.556Z,31.16
2018-08-22T11:35:33.835Z,31.35
2018-08-22T11:38:02.126Z,31.59
2018-08-22T11:40:31.806Z,31.71
2018-08-22T11:42:59.967Z,31.44
2018-08-22T11:45:28.072Z,31.73
2018-08-22T11:47:56.496Z,31.87
2018-08-22T11:50:24.641Z,31.98
2018-08-22T11:52:52.799Z,32.00
2018-08-22T11:55:21.172Z,32.06
2018-08-22T11:57:49.549Z,32.09
2018-08-22T12:00:17.699Z,31.77
2018-08-22T12:02:46.825Z,31.81
2018-08-22T12:05:15.796Z,31.98
2018-08-22T12:07:43.898Z,31.84
2018-08-22T12:10:12.054Z,32.01
2018-08-22T12:12:40.183Z,32.31
2018-08-22T19:24:07.594Z,25.86
2018-08-22T19:26:36.003Z,25.77
2018-08-22T19:29:05.398Z,25.65
2018-08-22T19:31:33.588Z,25.67
2018-08-22T19:34:02.731Z,25.61
2018-08-22T19:36:31.465Z,25.58
2018-08-22T19:39:00.420Z,25.52
2018-08-22T19:41:33.658Z,25.47
2018-08-22T19:44:01.838Z,25.43
2018-08-22T19:46:30.567Z,25.34
2018-08-22T19:49:00.249Z,25.29
2018-08-22T19:51:29.247Z,25.24
2018-08-22T19:54:04.038Z,25.11
2018-08-22T19:56:32.434Z,25.10
2018-08-22T19:59:01.518Z,25.09
2018-08-22T20:01:30.980Z,25.05
2018-08-22T20:03:59.126Z,24.97
2018-08-22T20:06:27.480Z,24.86
2018-08-22T20:08:57.086Z,24.72
2018-08-22T20:11:25.468Z,24.60
2018-08-22T20:13:58.787Z,24.51
2018-08-22T20:16:31.029Z,24.49
2018-08-22T20:19:00.322Z,24.34
2018-08-22T20:21:35.591Z,24.21
2018-08-22T20:24:05.212Z,24.14
2018-08-22T20:26:33.979Z,24.07
2018-08-22T20:29:03.179Z,24.03
2018-08-22T20:31:32.351Z,23.95
2018-08-22T20:34:03.431Z,23.88
2018-08-22T20:36:32.334Z,23.89
2018-08-22T20:39:04.001Z,23.83
2018-08-22T20:41:32.797Z,23.72
2018-08-22T20:44:01.300Z,23.63
2018-08-22T20:46:29.407Z,23.55
2018-08-22T20:48:57.537Z,23.43
2018-08-22T20:51:25.633Z,23.30
2018-08-22T20:54:01.987Z,23.32
2018-08-22T20:56:31.213Z,23.15
2018-08-22T20:58:59.339Z,23.17
2018-08-22T21:01:27.561Z,22.91
2018-08-22T21:03:55.817Z,22.93
2018-08-22T21:06:24.101Z,22.89
2018-08-22T21:08:52.206Z,22.95
2018-08-22T21:11:20.381Z,22.89
2018-08-22T21:13:48.695Z,22.79
2018-08-22T21:16:16.787Z,22.73
2018-08-22T21:18:44.900Z,22.70
2018-08-22T21:21:17.442Z,22.70
2018-08-22T21:23:45.572Z,22.67
2018-08-22T21:26:20.169Z,22.68
2018-08-22T21:28:49.165Z,22.64
2018-08-22T21:31:17.568Z,22.58
2018-08-22T21:33:45.696Z,22.61
2018-08-22T21:36:14.335Z,22.68
2018-08-22T21:38:42.564Z,22.66
2018-08-22T21:41:10.670Z,22.61
2018-08-22T21:43:38.807Z,22.45
2018-08-22T21:46:06.929Z,22.35
2018-08-22T21:48:35.073Z,22.37
2018-08-22T21:51:03.194Z,22.31
2018-08-22T21:53:31.320Z,22.36
2018-08-22T21:55:59.435Z,22.32
2018-08-22T21:58:27.560Z,22.20
2018-08-22T22:02:44.807Z,22.09
2018-08-22T22:05:13.388Z,22.01
2018-08-22T22:07:41.861Z,21.94
2018-08-22T22:10:11.312Z,21.81
2018-08-22T22:12:40.041Z,21.82
2018-08-22T22:15:10.038Z,21.78
2018-08-22T22:17:38.145Z,21.77
2018-08-22T22:20:06.292Z,21.68
2018-08-22T22:22:35.449Z,21.80
2018-08-22T22:25:04.663Z,21.85
2018-08-22T22:27:33.004Z,21.78
2018-08-22T22:30:03.318Z,21.68
2018-08-22T22:32:32.124Z,21.59
2018-08-22T22:35:00.291Z,21.57
2018-08-22T22:37:29.325Z,21.52
2018-08-22T22:39:58.455Z,21.45
2018-08-22T22:42:28.296Z,21.52
2018-08-22T22:44:57.853Z,21.62
2018-08-22T22:47:27.512Z,21.67
2018-08-22T22:49:56.309Z,21.56
2018-08-22T22:52:27.556Z,21.44
2018-08-22T22:54:56.656Z,21.38
2018-08-22T22:57:24.896Z,21.30
2018-08-22T22:59:54.500Z,21.13
2018-08-22T23:02:24.550Z,21.10
2018-08-22T23:05:00.096Z,21.15
2018-08-22T23:07:30.012Z,21.08
2018-08-22T23:09:59.330Z,20.93
2018-08-22T23:12:37.929Z,20.87
2018-08-22T23:15:07.349Z,20.88
2018-08-22T23:17:35.467Z,20.85
2018-08-22T23:20:14.220Z,20.82
2018-08-22T23:22:42.306Z,20.85
2018-08-22T23:25:11.215Z,20.80
2018-08-22T23:27:40.653Z,20.81
2018-08-22T23:30:08.979Z,20.73
2018-08-22T23:32:38.686Z,20.82
2018-08-22T23:35:21.304Z,20.76
2018-08-22T23:37:52.958Z,20.67
2018-08-22T23:40:22.483Z,20.58
2018-08-22T23:42:50.643Z,20.59
2018-08-22T23:45:18.799Z,20.60
2018-08-22T23:47:46.909Z,20.51
2018-08-22T23:50:15.063Z,20.42
2018-08-22T23:52:50.520Z,20.36
2018-08-22T23:55:20.128Z,20.34
2018-08-22T23:57:53.111Z,20.32
